Albertville, AL

2:35 AM CDT on May 01, 2017 (GMT -0500)
Albertville

Weather History for K8A0 - October, 2012

Change the Weather History Date:

Saturday, October 6, 2012

  Actual Average (KGAD) Record (KGAD)
Temperature  
Mean Temperature 58 °F -  
Max Temperature 62 °F 74 °F 95 °F (1938)
Min Temperature 53 °F 52 °F 35 °F (2010)
Degree Days  
Heating Degree Days 8    
Growing Degree Days 8 (Base 50)    
Moisture  
Dew Point 57 °F    
Average Humidity 100    
Maximum Humidity 100    
Minimum Humidity 100    
Precipitation  
Precipitation 0.03 in - - ()
Sea Level Pressure  
Sea Level Pressure 30.04 in    
Wind  
Wind Speed 4 mph (NNW)    
Max Wind Speed 10 mph    
Max Gust Speed 16 mph    
Visibility 9 miles    
Events Rain , Thunderstorm    
Averages and records for this station are not official NWS values.
T = Trace of Precipitation, MM = Missing Value Source: NWS Daily Summary

Daily Weather History Graph

Daily Weather History Graph

Search for Another Location

Airport or City:

Trip Planner

Search our weather history database for the weather conditions in past years. The results will help you decide how hot, cold, wet, or windy it might be!

Date:

Astronomy

Oct. 06, 2012 Rise Set
Actual Time 6:43 AM CDT 6:21 PM CDT
Civil Twilight 6:18 AM CDT 6:46 PM CDT
Nautical Twilight 5:49 AM CDT 7:15 PM CDT
Astronomical Twilight 5:20 AM CDT 7:44 PM CDT
Moon 10:48 PM CDT (10/6) 12:25 PM CDT (10/6)
Length of Visible Light 12h 28m
Length of Day
11h 38m
Waning Gibbous, 65% of the Moon is Illuminated
Oct 6
Waning Gibbous
Oct 8
Last Quarter
Oct 15
New
Oct 21
First Quarter
Oct 29
Full

Hourly Weather History & Observations

Time (CDT) Temp. Dew Point Humidity Pressure Visibility Wind Dir Wind Speed Gust Speed Precip Events Conditions
12:15 AM 60.8 °F 60.8 °F 100% 30.04 in 10.0 mi Calm Calm - N/A   Unknown
12:35 AM 60.8 °F 60.8 °F 100% 30.03 in 10.0 mi South 3.5 mph - N/A   Unknown
12:55 AM 60.8 °F 60.8 °F 100% 30.03 in 10.0 mi South 3.5 mph - N/A   Unknown
1:15 AM 62.6 °F 62.6 °F 100% 30.02 in 10.0 mi SSE 6.9 mph - N/A   Unknown
1:55 AM 62.6 °F 62.6 °F 100% 30.02 in 10.0 mi Calm Calm - N/A   Unknown
2:35 AM 60.8 °F 60.8 °F 100% 30.02 in 10.0 mi Calm Calm - N/A   Unknown
2:55 AM 59.0 °F 59.0 °F 100% 30.01 in 7.0 mi Calm Calm - N/A   Unknown
3:15 AM 60.8 °F 60.8 °F 100% 30.00 in 10.0 mi Calm Calm - N/A   Unknown
3:35 AM 59.0 °F 59.0 °F 100% 30.00 in 10.0 mi SSW 4.6 mph - N/A   Unknown
3:55 AM 60.8 °F 60.8 °F 100% 30.00 in 10.0 mi SSW 3.5 mph - N/A   Unknown
4:15 AM 60.8 °F 60.8 °F 100% 30.00 in 10.0 mi Calm Calm - N/A   Unknown
4:35 AM 59.0 °F 59.0 °F 100% 30.01 in 10.0 mi Calm Calm - N/A   Unknown
4:55 AM 59.0 °F 59.0 °F 100% 30.01 in 7.0 mi WSW 3.5 mph - N/A   Unknown
5:15 AM 60.8 °F 60.8 °F 100% 30.02 in 10.0 mi Calm Calm - N/A   Unknown
5:35 AM 60.8 °F 60.8 °F 100% 30.02 in 10.0 mi SW 3.5 mph - N/A   Unknown
5:55 AM 62.6 °F 62.6 °F 100% 30.04 in 10.0 mi West 5.8 mph - N/A   Unknown
6:15 AM 60.8 °F 60.8 °F 100% 30.02 in 10.0 mi South 3.5 mph - N/A   Unknown
6:35 AM 60.8 °F 60.8 °F 100% 30.02 in 10.0 mi Calm Calm - N/A   Unknown
6:55 AM 60.8 °F 60.8 °F 100% 30.02 in 7.0 mi Calm Calm - N/A   Unknown
7:15 AM 59.0 °F 59.0 °F 100% 30.03 in 7.0 mi Calm Calm - N/A   Unknown
7:35 AM 60.8 °F 60.8 °F 100% 30.03 in 5.0 mi Calm Calm - N/A Thunderstorm Mist
7:55 AM 62.6 °F 62.6 °F 100% 30.04 in 10.0 mi Calm Calm - N/A   Unknown
8:15 AM 62.6 °F 62.6 °F 100% 30.06 in 7.0 mi WNW 3.5 mph - N/A   Unknown
8:35 AM 62.6 °F 62.6 °F 100% 30.07 in 10.0 mi NW 3.5 mph - N/A Rain , Thunderstorm Light Thunderstorms and Rain
8:55 AM 62.6 °F 62.6 °F 100% 30.05 in 4.0 mi Calm Calm - 0.01 in Rain Light Rain
9:15 AM 60.8 °F 60.8 °F 100% 30.03 in 2.5 mi NNW 6.9 mph - 0.01 in Rain Light Rain
9:35 AM 60.8 °F 60.8 °F 100% 30.05 in 4.0 mi NNW 8.1 mph - 0.02 in Rain Light Rain
9:55 AM 60.8 °F 60.8 °F 100% 30.07 in 4.0 mi NW 9.2 mph - 0.02 in Rain Light Rain
10:15 AM 59.0 °F 59.0 °F 100% 30.07 in 5.0 mi NNW 8.1 mph - N/A   Mist
10:35 AM 57.2 °F 57.2 °F 100% 30.07 in 5.0 mi NW 9.2 mph - N/A   Mist
10:55 AM 55.4 °F 55.4 °F 100% 30.08 in 4.0 mi NW 6.9 mph - N/A   Mist
11:15 AM 55.4 °F 55.4 °F 100% 30.08 in 10.0 mi NNW 6.9 mph - N/A   Unknown
11:35 AM 55.4 °F 55.4 °F 100% 30.07 in 10.0 mi NNW 5.8 mph - N/A   Unknown
11:55 AM 55.4 °F 55.4 °F 100% 30.08 in 10.0 mi North 8.1 mph - N/A   Unknown
12:15 PM 53.6 °F 53.6 °F 100% 30.07 in 7.0 mi North 9.2 mph - N/A   Unknown
12:35 PM 53.6 °F 53.6 °F 100% 30.06 in 7.0 mi NNW 6.9 mph - N/A   Unknown
12:55 PM 53.6 °F 53.6 °F 100% 30.05 in 7.0 mi North 3.5 mph - N/A   Unknown
1:15 PM 55.4 °F 55.4 °F 100% 30.05 in 7.0 mi North 8.1 mph - N/A   Unknown
1:35 PM 55.4 °F 55.4 °F 100% 30.04 in 10.0 mi North 6.9 mph - N/A   Unknown
1:55 PM 55.4 °F 55.4 °F 100% 30.04 in 7.0 mi North 8.1 mph - N/A   Unknown
2:15 PM 55.4 °F 55.4 °F 100% 30.03 in 7.0 mi North 8.1 mph - N/A   Unknown
2:35 PM 55.4 °F 55.4 °F 100% 30.03 in 10.0 mi North 9.2 mph - N/A   Unknown
2:55 PM 55.4 °F 55.4 °F 100% 30.04 in 10.0 mi NNW 10.4 mph - N/A   Unknown
3:15 PM 55.4 °F 55.4 °F 100% 30.02 in 7.0 mi North 6.9 mph - N/A   Unknown
3:35 PM 55.4 °F 55.4 °F 100% 30.02 in 10.0 mi North 6.9 mph - N/A   Unknown
3:55 PM 55.4 °F 55.4 °F 100% 30.01 in 10.0 mi North 6.9 mph - N/A   Unknown
4:15 PM 55.4 °F 55.4 °F 100% 30.02 in 10.0 mi NNW 6.9 mph - N/A   Unknown
4:35 PM 55.4 °F 55.4 °F 100% 30.03 in 10.0 mi North 10.4 mph - N/A   Unknown
4:55 PM 55.4 °F 55.4 °F 100% 30.03 in 10.0 mi North 8.1 mph 16.1 mph N/A   Unknown
5:15 PM 57.2 °F 57.2 °F 100% 30.03 in 10.0 mi North 6.9 mph - N/A   Unknown
5:35 PM 55.4 °F 55.4 °F 100% 30.03 in 10.0 mi North 10.4 mph - N/A   Unknown
5:55 PM 55.4 °F 55.4 °F 100% 30.05 in 10.0 mi North 6.9 mph - N/A   Unknown
6:15 PM 55.4 °F 55.4 °F 100% 30.05 in 10.0 mi North 10.4 mph - N/A   Unknown
6:35 PM 55.4 °F 55.4 °F 100% 30.03 in 10.0 mi North 5.8 mph - N/A   Unknown
6:55 PM 55.4 °F 55.4 °F 100% 30.04 in 10.0 mi NNE 4.6 mph - N/A   Unknown
7:15 PM 55.4 °F 55.4 °F 100% 30.05 in 10.0 mi NNE 6.9 mph - N/A   Unknown
7:35 PM 55.4 °F 55.4 °F 100% 30.07 in 10.0 mi North 8.1 mph - N/A   Unknown
7:55 PM 55.4 °F 55.4 °F 100% 30.08 in 10.0 mi North 9.2 mph - N/A   Unknown
8:15 PM 53.6 °F 53.6 °F 100% 30.07 in 10.0 mi NE 9.2 mph - N/A   Unknown
8:35 PM 53.6 °F 53.6 °F 100% 30.06 in 10.0 mi NE 6.9 mph - N/A   Light Drizzle
8:55 PM 53.6 °F 53.6 °F 100% 30.07 in 10.0 mi NNE 6.9 mph - N/A   Unknown
9:15 PM 53.6 °F 53.6 °F 100% 30.06 in 10.0 mi NNE 4.6 mph - N/A   Light Drizzle
9:35 PM 53.6 °F 53.6 °F 100% 30.06 in 10.0 mi NNE 4.6 mph - N/A   Unknown
9:55 PM 53.6 °F 53.6 °F 100% 30.08 in 10.0 mi Calm Calm - N/A   Light Drizzle
10:15 PM 53.6 °F 53.6 °F 100% 30.08 in 10.0 mi NNE 6.9 mph - N/A   Unknown
10:35 PM 53.6 °F 53.6 °F 100% 30.07 in 10.0 mi North 10.4 mph - N/A   Unknown
11:15 PM 53.6 °F 53.6 °F 100% 30.06 in 10.0 mi North 6.9 mph - N/A   Unknown
11:35 PM 53.6 °F 53.6 °F 100% 30.07 in 10.0 mi North 5.8 mph - N/A   Unknown
11:55 PM 53.6 °F 53.6 °F 100% 30.06 in 10.0 mi North 5.8 mph - N/A   Unknown